Terminal Aerodrome Forecast
Issued by NWS

Home | Current Version | Previous Version | Graphics & Text | Print | Product List | Glossary On
Versions: 1 2 3 4 5 6 7 8 9 10 11 12 13 14 15 16 17
806
FTUS43 KABR 240530
TAFPIR
TAF
KPIR 240530Z 2406/2506 02014KT P6SM OVC021
     FM240800 02014G21KT P6SM OVC015
     FM241100 01016G24KT P6SM OVC020
     FM241300 36016G24KT P6SM SCT015 OVC150
     FM242000 35015G23KT P6SM SCT150
     FM250000 34012KT P6SM SCT200
     FM250300 34007KT P6SM SCT200=

USA.gov is the U.S. government's official web portal to all federal, state and local government web resources and services.